Terminal Aerodrome Forecast
Issued by NWS

Home | Current Version | Previous Version | Text Only | Print | Product List | Glossary On
Versions: 1 2 3 4 5 6 7 8 9 10 11 12 13 14 15 16 17 18
000
FTUS41 KGYX 281120
TAFPSM
TAF
KPSM 281120Z 2812/2912 20010KT 6SM HZ SCT010 SCT120
     FM281300 21007KT P6SM SCT010 SCT050
     FM281500 22010G20KT P6SM SCT050
      TEMPO 2820/2822 P6SM -TSRA BKN050CB
     FM290000 29010KT P6SM SCT120=

USA.gov is the U.S. government's official web portal to all federal, state and local government web resources and services.